sensor_id;sensor_type;location;lat;lon;timestamp;temperature;humidity
6843;DHT22;3460;52.028;8.916;2022-10-16T00:00:35;13.10;99.90
6843;DHT22;3460;52.028;8.916;2022-10-16T00:03:03;13.20;99.90
6843;DHT22;3460;52.028;8.916;2022-10-16T00:05:31;13.30;99.90
6843;DHT22;3460;52.028;8.916;2022-10-16T00:07:57;13.30;99.90
6843;DHT22;3460;52.028;8.916;2022-10-16T00:10:24;13.30;99.90
6843;DHT22;3460;52.028;8.916;2022-10-16T00:12:51;13.20;99.90
6843;DHT22;3460;52.028;8.916;2022-10-16T00:15:17;13.30;99.90
6843;DHT22;3460;52.028;8.916;2022-10-16T00:17:44;13.30;99.90
6843;DHT22;3460;52.028;8.916;2022-10-16T00:20:12;13.30;99.90
6843;DHT22;3460;52.028;8.916;2022-10-16T00:22:39;13.30;99.90
6843;DHT22;3460;52.028;8.916;2022-10-16T00:25:06;13.30;99.90
6843;DHT22;3460;52.028;8.916;2022-10-16T00:27:33;13.40;99.90
6843;DHT22;3460;52.028;8.916;2022-10-16T00:30:00;13.40;99.90
6843;DHT22;3460;52.028;8.916;2022-10-16T00:32:27;13.40;99.90
6843;DHT22;3460;52.028;8.916;2022-10-16T00:34:53;13.40;99.90
6843;DHT22;3460;52.028;8.916;2022-10-16T00:37:22;13.40;99.90
6843;DHT22;3460;52.028;8.916;2022-10-16T00:39:48;13.40;99.90
6843;DHT22;3460;52.028;8.916;2022-10-16T00:42:18;13.30;99.90
6843;DHT22;3460;52.028;8.916;2022-10-16T00:44:47;13.30;99.90
6843;DHT22;3460;52.028;8.916;2022-10-16T00:47:19;13.30;99.90
6843;DHT22;3460;52.028;8.916;2022-10-16T00:49:49;13.30;99.90
6843;DHT22;3460;52.028;8.916;2022-10-16T00:52:17;13.40;99.90
6843;DHT22;3460;52.028;8.916;2022-10-16T00:54:46;13.40;99.90
6843;DHT22;3460;52.028;8.916;2022-10-16T00:57:13;13.30;99.90
6843;DHT22;3460;52.028;8.916;2022-10-16T00:59:41;13.40;99.90
6843;DHT22;3460;52.028;8.916;2022-10-16T01:02:11;13.40;99.90
6843;DHT22;3460;52.028;8.916;2022-10-16T01:04:40;13.30;99.90
6843;DHT22;3460;52.028;8.916;2022-10-16T01:07:12;13.30;99.90
6843;DHT22;3460;52.028;8.916;2022-10-16T01:09:50;13.30;99.90
6843;DHT22;3460;52.028;8.916;2022-10-16T01:12:25;13.30;99.90
6843;DHT22;3460;52.028;8.916;2022-10-16T01:14:58;13.30;99.90
6843;DHT22;3460;52.028;8.916;2022-10-16T01:17:30;13.30;99.90
6843;DHT22;3460;52.028;8.916;2022-10-16T01:20:10;13.30;99.90
6843;DHT22;3460;52.028;8.916;2022-10-16T01:22:43;13.30;99.90
6843;DHT22;3460;52.028;8.916;2022-10-16T01:25:18;13.20;99.90
6843;DHT22;3460;52.028;8.916;2022-10-16T01:27:48;13.10;99.90
6843;DHT22;3460;52.028;8.916;2022-10-16T01:30:18;13.00;99.90
6843;DHT22;3460;52.028;8.916;2022-10-16T01:32:50;12.90;99.90
6843;DHT22;3460;52.028;8.916;2022-10-16T01:35:23;12.90;99.90
6843;DHT22;3460;52.028;8.916;2022-10-16T01:37:55;12.90;99.90
6843;DHT22;3460;52.028;8.916;2022-10-16T01:40:25;12.80;99.90
6843;DHT22;3460;52.028;8.916;2022-10-16T01:42:56;12.80;99.90
6843;DHT22;3460;52.028;8.916;2022-10-16T01:45:26;12.80;99.90
6843;DHT22;3460;52.028;8.916;2022-10-16T01:47:55;12.80;99.90
6843;DHT22;3460;52.028;8.916;2022-10-16T01:50:22;12.70;99.90
6843;DHT22;3460;52.028;8.916;2022-10-16T01:52:52;12.60;99.90
6843;DHT22;3460;52.028;8.916;2022-10-16T01:55:24;12.60;99.90
6843;DHT22;3460;52.028;8.916;2022-10-16T01:57:55;12.50;99.90
6843;DHT22;3460;52.028;8.916;2022-10-16T02:00:23;12.50;99.90
6843;DHT22;3460;52.028;8.916;2022-10-16T02:02:53;12.40;99.90
6843;DHT22;3460;52.028;8.916;2022-10-16T02:05:23;12.40;99.90
6843;DHT22;3460;52.028;8.916;2022-10-16T02:07:51;12.40;99.90
6843;DHT22;3460;52.028;8.916;2022-10-16T02:10:18;12.40;99.90
6843;DHT22;3460;52.028;8.916;2022-10-16T02:12:48;12.40;99.90
6843;DHT22;3460;52.028;8.916;2022-10-16T02:15:18;12.40;99.90
6843;DHT22;3460;52.028;8.916;2022-10-16T02:17:44;12.40;99.90
6843;DHT22;3460;52.028;8.916;2022-10-16T02:20:11;12.30;99.90
6843;DHT22;3460;52.028;8.916;2022-10-16T02:22:40;12.30;99.90
6843;DHT22;3460;52.028;8.916;2022-10-16T02:25:10;12.30;99.90
6843;DHT22;3460;52.028;8.916;2022-10-16T02:27:41;12.40;99.90
6843;DHT22;3460;52.028;8.916;2022-10-16T02:30:14;12.30;99.90
6843;DHT22;3460;52.028;8.916;2022-10-16T02:32:45;12.30;99.90
6843;DHT22;3460;52.028;8.916;2022-10-16T02:35:13;12.30;99.90
6843;DHT22;3460;52.028;8.916;2022-10-16T02:37:42;12.30;99.90
6843;DHT22;3460;52.028;8.916;2022-10-16T02:40:09;12.30;99.90
6843;DHT22;3460;52.028;8.916;2022-10-16T02:42:38;12.30;99.90
6843;DHT22;3460;52.028;8.916;2022-10-16T02:45:06;12.30;99.90
6843;DHT22;3460;52.028;8.916;2022-10-16T02:47:34;12.30;99.90
6843;DHT22;3460;52.028;8.916;2022-10-16T02:50:02;12.30;99.90
6843;DHT22;3460;52.028;8.916;2022-10-16T02:52:29;12.30;99.90
6843;DHT22;3460;52.028;8.916;2022-10-16T02:54:56;12.30;99.90
6843;DHT22;3460;52.028;8.916;2022-10-16T02:57:23;12.20;99.90
6843;DHT22;3460;52.028;8.916;2022-10-16T02:59:49;12.20;99.90
6843;DHT22;3460;52.028;8.916;2022-10-16T03:02:16;12.10;99.90
6843;DHT22;3460;52.028;8.916;2022-10-16T03:04:43;12.20;99.90
6843;DHT22;3460;52.028;8.916;2022-10-16T03:07:11;12.30;99.90
6843;DHT22;3460;52.028;8.916;2022-10-16T03:09:37;12.30;99.90
6843;DHT22;3460;52.028;8.916;2022-10-16T03:12:04;12.40;99.90
6843;DHT22;3460;52.028;8.916;2022-10-16T03:14:31;12.40;99.90
6843;DHT22;3460;52.028;8.916;2022-10-16T03:16:58;12.40;99.90
6843;DHT22;3460;52.028;8.916;2022-10-16T03:19:25;12.40;99.90
6843;DHT22;3460;52.028;8.916;2022-10-16T03:21:51;12.50;99.90
6843;DHT22;3460;52.028;8.916;2022-10-16T03:24:19;12.50;99.90
6843;DHT22;3460;52.028;8.916;2022-10-16T03:26:46;12.50;99.90
6843;DHT22;3460;52.028;8.916;2022-10-16T03:29:12;12.60;99.90
6843;DHT22;3460;52.028;8.916;2022-10-16T03:31:39;12.50;99.90
6843;DHT22;3460;52.028;8.916;2022-10-16T03:34:06;12.50;99.90
6843;DHT22;3460;52.028;8.916;2022-10-16T03:36:33;12.50;99.90
6843;DHT22;3460;52.028;8.916;2022-10-16T03:39:00;12.60;99.90
6843;DHT22;3460;52.028;8.916;2022-10-16T03:41:28;12.80;99.90
6843;DHT22;3460;52.028;8.916;2022-10-16T03:43:54;12.90;99.90
6843;DHT22;3460;52.028;8.916;2022-10-16T03:46:21;12.90;99.90
6843;DHT22;3460;52.028;8.916;2022-10-16T03:48:48;13.00;99.90
6843;DHT22;3460;52.028;8.916;2022-10-16T03:51:14;13.10;99.90
6843;DHT22;3460;52.028;8.916;2022-10-16T03:53:41;13.00;99.90
6843;DHT22;3460;52.028;8.916;2022-10-16T03:56:08;12.90;99.90
6843;DHT22;3460;52.028;8.916;2022-10-16T03:58:36;13.00;99.90
6843;DHT22;3460;52.028;8.916;2022-10-16T04:01:02;12.90;99.90
6843;DHT22;3460;52.028;8.916;2022-10-16T04:03:29;12.80;99.90
6843;DHT22;3460;52.028;8.916;2022-10-16T04:05:56;12.80;99.90
6843;DHT22;3460;52.028;8.916;2022-10-16T04:08:23;12.70;99.90
6843;DHT22;3460;52.028;8.916;2022-10-16T04:10:49;12.60;99.90
6843;DHT22;3460;52.028;8.916;2022-10-16T04:13:16;12.60;99.90
6843;DHT22;3460;52.028;8.916;2022-10-16T04:15:45;12.60;99.90
6843;DHT22;3460;52.028;8.916;2022-10-16T04:18:12;12.60;99.90
6843;DHT22;3460;52.028;8.916;2022-10-16T04:20:39;12.70;99.90
6843;DHT22;3460;52.028;8.916;2022-10-16T04:23:05;12.70;99.90
6843;DHT22;3460;52.028;8.916;2022-10-16T04:25:32;12.70;99.90
6843;DHT22;3460;52.028;8.916;2022-10-16T04:27:59;12.60;99.90
6843;DHT22;3460;52.028;8.916;2022-10-16T04:30:26;12.60;99.90
6843;DHT22;3460;52.028;8.916;2022-10-16T04:32:54;12.50;99.90
6843;DHT22;3460;52.028;8.916;2022-10-16T04:35:21;12.50;99.90
6843;DHT22;3460;52.028;8.916;2022-10-16T04:37:48;12.50;99.90
6843;DHT22;3460;52.028;8.916;2022-10-16T04:40:16;12.50;99.90
6843;DHT22;3460;52.028;8.916;2022-10-16T04:42:43;12.40;99.90
6843;DHT22;3460;52.028;8.916;2022-10-16T04:45:09;12.40;99.90
6843;DHT22;3460;52.028;8.916;2022-10-16T04:47:36;12.40;99.90
6843;DHT22;3460;52.028;8.916;2022-10-16T04:50:05;12.30;99.90
6843;DHT22;3460;52.028;8.916;2022-10-16T04:52:32;12.40;99.90
6843;DHT22;3460;52.028;8.916;2022-10-16T04:54:59;12.40;99.90
6843;DHT22;3460;52.028;8.916;2022-10-16T04:57:28;12.40;99.90
6843;DHT22;3460;52.028;8.916;2022-10-16T04:59:55;12.50;99.90
6843;DHT22;3460;52.028;8.916;2022-10-16T05:02:21;12.60;99.90
6843;DHT22;3460;52.028;8.916;2022-10-16T05:04:48;12.60;99.90
6843;DHT22;3460;52.028;8.916;2022-10-16T05:07:16;12.70;99.90
6843;DHT22;3460;52.028;8.916;2022-10-16T05:09:43;12.80;99.90
6843;DHT22;3460;52.028;8.916;2022-10-16T05:12:10;12.80;99.90
6843;DHT22;3460;52.028;8.916;2022-10-16T05:14:36;12.80;99.90
6843;DHT22;3460;52.028;8.916;2022-10-16T05:17:03;12.90;99.90
6843;DHT22;3460;52.028;8.916;2022-10-16T05:19:30;12.90;99.90
6843;DHT22;3460;52.028;8.916;2022-10-16T05:21:56;13.00;99.90
6843;DHT22;3460;52.028;8.916;2022-10-16T05:24:24;13.10;99.90
6843;DHT22;3460;52.028;8.916;2022-10-16T05:26:51;13.20;99.90
6843;DHT22;3460;52.028;8.916;2022-10-16T05:29:18;13.20;99.90
6843;DHT22;3460;52.028;8.916;2022-10-16T05:31:45;13.30;99.90
6843;DHT22;3460;52.028;8.916;2022-10-16T05:34:12;13.30;99.90
6843;DHT22;3460;52.028;8.916;2022-10-16T05:36:39;13.40;99.90
6843;DHT22;3460;52.028;8.916;2022-10-16T05:39:06;13.40;99.90
6843;DHT22;3460;52.028;8.916;2022-10-16T05:41:34;13.50;99.90
6843;DHT22;3460;52.028;8.916;2022-10-16T05:44:04;13.50;99.90
6843;DHT22;3460;52.028;8.916;2022-10-16T05:46:30;13.60;99.90
6843;DHT22;3460;52.028;8.916;2022-10-16T05:48:57;13.50;99.90
6843;DHT22;3460;52.028;8.916;2022-10-16T05:51:24;13.50;99.90
6843;DHT22;3460;52.028;8.916;2022-10-16T05:53:52;13.60;99.90
6843;DHT22;3460;52.028;8.916;2022-10-16T05:56:19;13.60;99.90
6843;DHT22;3460;52.028;8.916;2022-10-16T05:58:47;13.60;99.90
6843;DHT22;3460;52.028;8.916;2022-10-16T06:01:15;13.60;99.90
6843;DHT22;3460;52.028;8.916;2022-10-16T06:03:42;13.60;99.90
6843;DHT22;3460;52.028;8.916;2022-10-16T06:06:09;13.70;99.90
6843;DHT22;3460;52.028;8.916;2022-10-16T06:08:37;13.70;99.90
6843;DHT22;3460;52.028;8.916;2022-10-16T06:11:05;13.80;99.90
6843;DHT22;3460;52.028;8.916;2022-10-16T06:13:32;13.90;99.90
6843;DHT22;3460;52.028;8.916;2022-10-16T06:16:01;14.00;99.90
6843;DHT22;3460;52.028;8.916;2022-10-16T06:18:29;14.10;99.90
6843;DHT22;3460;52.028;8.916;2022-10-16T06:20:57;14.10;99.90
6843;DHT22;3460;52.028;8.916;2022-10-16T06:23:24;14.10;99.90
6843;DHT22;3460;52.028;8.916;2022-10-16T06:25:51;14.10;99.90
6843;DHT22;3460;52.028;8.916;2022-10-16T06:28:18;14.20;99.90
6843;DHT22;3460;52.028;8.916;2022-10-16T06:30:45;14.20;99.90
6843;DHT22;3460;52.028;8.916;2022-10-16T06:33:13;14.20;99.90
6843;DHT22;3460;52.028;8.916;2022-10-16T06:35:39;14.20;99.90
6843;DHT22;3460;52.028;8.916;2022-10-16T06:38:06;14.20;99.90
6843;DHT22;3460;52.028;8.916;2022-10-16T06:40:33;14.40;99.90
6843;DHT22;3460;52.028;8.916;2022-10-16T06:42:59;14.40;99.90
6843;DHT22;3460;52.028;8.916;2022-10-16T06:45:26;14.40;99.90
6843;DHT22;3460;52.028;8.916;2022-10-16T06:47:53;14.50;99.90
6843;DHT22;3460;52.028;8.916;2022-10-16T06:50:21;14.60;99.90
6843;DHT22;3460;52.028;8.916;2022-10-16T06:52:47;14.60;99.90
6843;DHT22;3460;52.028;8.916;2022-10-16T06:55:14;14.60;99.90
6843;DHT22;3460;52.028;8.916;2022-10-16T06:57:42;14.60;99.90
6843;DHT22;3460;52.028;8.916;2022-10-16T07:00:09;14.70;99.90
6843;DHT22;3460;52.028;8.916;2022-10-16T07:02:36;14.80;99.90
6843;DHT22;3460;52.028;8.916;2022-10-16T07:05:03;14.90;99.90
6843;DHT22;3460;52.028;8.916;2022-10-16T07:07:32;14.90;99.90
6843;DHT22;3460;52.028;8.916;2022-10-16T07:09:58;14.90;99.90
6843;DHT22;3460;52.028;8.916;2022-10-16T07:12:25;14.90;99.90
6843;DHT22;3460;52.028;8.916;2022-10-16T07:14:52;14.90;99.90
6843;DHT22;3460;52.028;8.916;2022-10-16T07:17:20;14.90;99.90
6843;DHT22;3460;52.028;8.916;2022-10-16T07:19:46;14.90;99.90
6843;DHT22;3460;52.028;8.916;2022-10-16T07:22:13;15.00;99.90
6843;DHT22;3460;52.028;8.916;2022-10-16T07:24:41;15.00;99.90
6843;DHT22;3460;52.028;8.916;2022-10-16T07:27:08;15.10;99.90
6843;DHT22;3460;52.028;8.916;2022-10-16T07:29:35;15.10;99.90
6843;DHT22;3460;52.028;8.916;2022-10-16T07:32:02;15.20;99.90
6843;DHT22;3460;52.028;8.916;2022-10-16T07:34:29;15.30;99.90
6843;DHT22;3460;52.028;8.916;2022-10-16T07:36:55;15.30;99.90
6843;DHT22;3460;52.028;8.916;2022-10-16T07:39:22;15.30;99.90
6843;DHT22;3460;52.028;8.916;2022-10-16T07:41:50;15.20;99.90
6843;DHT22;3460;52.028;8.916;2022-10-16T07:44:17;15.40;99.90
6843;DHT22;3460;52.028;8.916;2022-10-16T07:46:43;15.50;99.90
6843;DHT22;3460;52.028;8.916;2022-10-16T07:49:10;15.60;99.90
6843;DHT22;3460;52.028;8.916;2022-10-16T07:51:37;15.60;99.90
6843;DHT22;3460;52.028;8.916;2022-10-16T07:54:04;15.70;99.90
6843;DHT22;3460;52.028;8.916;2022-10-16T07:56:31;15.80;99.90
6843;DHT22;3460;52.028;8.916;2022-10-16T07:59:00;15.90;99.90
6843;DHT22;3460;52.028;8.916;2022-10-16T08:01:27;16.10;99.90
6843;DHT22;3460;52.028;8.916;2022-10-16T08:03:53;16.10;99.90
6843;DHT22;3460;52.028;8.916;2022-10-16T08:06:21;16.10;99.90
6843;DHT22;3460;52.028;8.916;2022-10-16T08:08:48;16.10;99.90
6843;DHT22;3460;52.028;8.916;2022-10-16T08:11:15;16.10;99.90
6843;DHT22;3460;52.028;8.916;2022-10-16T08:13:42;16.00;99.90
6843;DHT22;3460;52.028;8.916;2022-10-16T08:16:10;15.90;99.90
6843;DHT22;3460;52.028;8.916;2022-10-16T08:18:38;15.80;99.90
6843;DHT22;3460;52.028;8.916;2022-10-16T08:21:08;15.70;99.90
6843;DHT22;3460;52.028;8.916;2022-10-16T08:23:37;15.60;99.90
6843;DHT22;3460;52.028;8.916;2022-10-16T08:26:07;15.50;99.90
6843;DHT22;3460;52.028;8.916;2022-10-16T08:28:34;15.50;99.90
6843;DHT22;3460;52.028;8.916;2022-10-16T08:31:10;15.50;99.90
6843;DHT22;3460;52.028;8.916;2022-10-16T08:33:38;15.50;99.90
6843;DHT22;3460;52.028;8.916;2022-10-16T08:36:06;15.70;99.90
6843;DHT22;3460;52.028;8.916;2022-10-16T08:38:33;15.80;99.90
6843;DHT22;3460;52.028;8.916;2022-10-16T08:41:13;16.00;99.90
6843;DHT22;3460;52.028;8.916;2022-10-16T08:44:07;16.10;99.90
6843;DHT22;3460;52.028;8.916;2022-10-16T08:46:44;16.40;99.90
6843;DHT22;3460;52.028;8.916;2022-10-16T08:49:14;16.60;99.90
6843;DHT22;3460;52.028;8.916;2022-10-16T08:51:42;16.80;99.90
6843;DHT22;3460;52.028;8.916;2022-10-16T08:54:21;16.90;99.90
6843;DHT22;3460;52.028;8.916;2022-10-16T08:56:49;16.90;99.90
6843;DHT22;3460;52.028;8.916;2022-10-16T08:59:16;17.00;99.90
6843;DHT22;3460;52.028;8.916;2022-10-16T09:01:46;17.10;99.90
6843;DHT22;3460;52.028;8.916;2022-10-16T09:04:36;17.30;99.90
6843;DHT22;3460;52.028;8.916;2022-10-16T09:07:12;17.30;99.90
6843;DHT22;3460;52.028;8.916;2022-10-16T09:10:00;17.30;99.90
6843;DHT22;3460;52.028;8.916;2022-10-16T09:12:36;17.40;99.90
6843;DHT22;3460;52.028;8.916;2022-10-16T09:15:14;17.50;99.90
6843;DHT22;3460;52.028;8.916;2022-10-16T09:17:50;17.60;99.90
6843;DHT22;3460;52.028;8.916;2022-10-16T09:20:28;17.60;99.90
6843;DHT22;3460;52.028;8.916;2022-10-16T09:23:12;17.50;99.90
6843;DHT22;3460;52.028;8.916;2022-10-16T09:25:42;17.50;99.90
6843;DHT22;3460;52.028;8.916;2022-10-16T09:28:09;17.50;99.90
6843;DHT22;3460;52.028;8.916;2022-10-16T09:30:37;17.50;99.90
6843;DHT22;3460;52.028;8.916;2022-10-16T09:33:05;17.50;99.90
6843;DHT22;3460;52.028;8.916;2022-10-16T09:35:36;17.40;99.90
6843;DHT22;3460;52.028;8.916;2022-10-16T09:38:04;17.40;99.90
6843;DHT22;3460;52.028;8.916;2022-10-16T09:40:33;17.50;99.90
6843;DHT22;3460;52.028;8.916;2022-10-16T09:43:06;17.60;99.90
6843;DHT22;3460;52.028;8.916;2022-10-16T09:45:40;17.70;99.90
6843;DHT22;3460;52.028;8.916;2022-10-16T09:48:12;17.90;99.90
6843;DHT22;3460;52.028;8.916;2022-10-16T09:50:39;18.00;99.90
6843;DHT22;3460;52.028;8.916;2022-10-16T09:53:11;18.00;99.90
6843;DHT22;3460;52.028;8.916;2022-10-16T09:55:48;18.00;99.90
6843;DHT22;3460;52.028;8.916;2022-10-16T09:58:16;18.10;99.90
6843;DHT22;3460;52.028;8.916;2022-10-16T10:00:49;18.10;99.90
6843;DHT22;3460;52.028;8.916;2022-10-16T10:03:35;18.20;99.90
6843;DHT22;3460;52.028;8.916;2022-10-16T10:06:14;18.30;99.90
6843;DHT22;3460;52.028;8.916;2022-10-16T10:08:59;18.50;99.90
6843;DHT22;3460;52.028;8.916;2022-10-16T10:11:44;18.60;99.90
6843;DHT22;3460;52.028;8.916;2022-10-16T10:14:17;18.80;99.90
6843;DHT22;3460;52.028;8.916;2022-10-16T10:16:45;18.70;99.90
6843;DHT22;3460;52.028;8.916;2022-10-16T10:19:16;18.60;99.90
6843;DHT22;3460;52.028;8.916;2022-10-16T10:21:43;18.60;99.90
6843;DHT22;3460;52.028;8.916;2022-10-16T10:24:11;18.50;99.90
6843;DHT22;3460;52.028;8.916;2022-10-16T10:26:38;18.30;99.90
6843;DHT22;3460;52.028;8.916;2022-10-16T10:29:11;18.30;99.90
6843;DHT22;3460;52.028;8.916;2022-10-16T10:31:47;18.40;99.90
6843;DHT22;3460;52.028;8.916;2022-10-16T10:34:33;18.40;99.90
6843;DHT22;3460;52.028;8.916;2022-10-16T10:37:06;18.50;99.90
6843;DHT22;3460;52.028;8.916;2022-10-16T10:39:39;18.50;99.90
6843;DHT22;3460;52.028;8.916;2022-10-16T10:42:14;18.50;99.90
6843;DHT22;3460;52.028;8.916;2022-10-16T10:44:57;18.40;99.90
6843;DHT22;3460;52.028;8.916;2022-10-16T10:47:35;18.20;99.90
6843;DHT22;3460;52.028;8.916;2022-10-16T10:50:14;18.00;99.90
6843;DHT22;3460;52.028;8.916;2022-10-16T10:52:52;18.00;99.90
6843;DHT22;3460;52.028;8.916;2022-10-16T10:55:24;18.10;99.90
6843;DHT22;3460;52.028;8.916;2022-10-16T10:58:14;18.20;99.90
6843;DHT22;3460;52.028;8.916;2022-10-16T11:00:48;18.20;99.90
6843;DHT22;3460;52.028;8.916;2022-10-16T11:03:31;18.20;99.90
6843;DHT22;3460;52.028;8.916;2022-10-16T11:06:05;18.30;99.90
6843;DHT22;3460;52.028;8.916;2022-10-16T11:08:35;18.30;99.90
6843;DHT22;3460;52.028;8.916;2022-10-16T11:11:06;18.30;99.90
6843;DHT22;3460;52.028;8.916;2022-10-16T11:13:38;18.30;99.90
6843;DHT22;3460;52.028;8.916;2022-10-16T11:16:13;18.30;99.90
6843;DHT22;3460;52.028;8.916;2022-10-16T11:18:47;18.50;99.90
6843;DHT22;3460;52.028;8.916;2022-10-16T11:21:18;18.60;99.90
6843;DHT22;3460;52.028;8.916;2022-10-16T11:23:51;18.60;99.90
6843;DHT22;3460;52.028;8.916;2022-10-16T11:26:25;18.60;99.90
6843;DHT22;3460;52.028;8.916;2022-10-16T11:28:54;18.60;99.90
6843;DHT22;3460;52.028;8.916;2022-10-16T11:31:26;18.70;99.90
6843;DHT22;3460;52.028;8.916;2022-10-16T11:34:01;18.70;99.90
6843;DHT22;3460;52.028;8.916;2022-10-16T11:36:35;18.70;99.90
6843;DHT22;3460;52.028;8.916;2022-10-16T11:39:22;18.80;99.90
6843;DHT22;3460;52.028;8.916;2022-10-16T11:41:52;19.00;99.90
6843;DHT22;3460;52.028;8.916;2022-10-16T11:44:38;19.00;99.90
6843;DHT22;3460;52.028;8.916;2022-10-16T11:47:15;19.10;99.90
6843;DHT22;3460;52.028;8.916;2022-10-16T11:49:44;19.10;99.90
6843;DHT22;3460;52.028;8.916;2022-10-16T11:52:16;19.10;99.90
6843;DHT22;3460;52.028;8.916;2022-10-16T11:54:47;19.20;99.90
6843;DHT22;3460;52.028;8.916;2022-10-16T11:57:19;19.10;99.90
6843;DHT22;3460;52.028;8.916;2022-10-16T11:59:51;19.00;99.90
6843;DHT22;3460;52.028;8.916;2022-10-16T12:02:38;19.00;99.90
6843;DHT22;3460;52.028;8.916;2022-10-16T12:05:16;19.10;99.90
6843;DHT22;3460;52.028;8.916;2022-10-16T12:07:50;19.10;99.90
6843;DHT22;3460;52.028;8.916;2022-10-16T12:10:21;19.00;99.90
6843;DHT22;3460;52.028;8.916;2022-10-16T12:12:48;18.90;99.90
6843;DHT22;3460;52.028;8.916;2022-10-16T12:15:23;18.80;99.90
6843;DHT22;3460;52.028;8.916;2022-10-16T12:17:51;18.60;99.90
6843;DHT22;3460;52.028;8.916;2022-10-16T12:20:23;18.50;99.90
6843;DHT22;3460;52.028;8.916;2022-10-16T12:22:54;18.50;99.90
6843;DHT22;3460;52.028;8.916;2022-10-16T12:25:25;18.40;99.90
6843;DHT22;3460;52.028;8.916;2022-10-16T12:27:58;18.30;99.90
6843;DHT22;3460;52.028;8.916;2022-10-16T12:30:27;18.30;99.90
6843;DHT22;3460;52.028;8.916;2022-10-16T12:32:56;18.20;99.90
6843;DHT22;3460;52.028;8.916;2022-10-16T12:35:25;18.20;99.90
6843;DHT22;3460;52.028;8.916;2022-10-16T12:37:54;18.10;99.90
6843;DHT22;3460;52.028;8.916;2022-10-16T12:40:32;18.00;99.90
6843;DHT22;3460;52.028;8.916;2022-10-16T12:43:11;18.10;99.90
6843;DHT22;3460;52.028;8.916;2022-10-16T12:45:38;18.10;99.90
6843;DHT22;3460;52.028;8.916;2022-10-16T12:48:18;18.20;99.90
6843;DHT22;3460;52.028;8.916;2022-10-16T12:50:45;18.20;99.90
6843;DHT22;3460;52.028;8.916;2022-10-16T12:53:21;18.40;99.90
6843;DHT22;3460;52.028;8.916;2022-10-16T12:55:55;18.50;99.90
6843;DHT22;3460;52.028;8.916;2022-10-16T12:58:38;18.60;99.90
6843;DHT22;3460;52.028;8.916;2022-10-16T13:01:19;18.60;99.90
6843;DHT22;3460;52.028;8.916;2022-10-16T13:03:59;18.60;99.90
6843;DHT22;3460;52.028;8.916;2022-10-16T13:06:36;18.80;99.90
6843;DHT22;3460;52.028;8.916;2022-10-16T13:18:13;19.10;99.90
6843;DHT22;3460;52.028;8.916;2022-10-16T13:20:55;19.20;99.90
6843;DHT22;3460;52.028;8.916;2022-10-16T13:23:28;19.30;99.90
6843;DHT22;3460;52.028;8.916;2022-10-16T13:26:11;19.30;99.90
6843;DHT22;3460;52.028;8.916;2022-10-16T13:28:39;19.40;99.90
6843;DHT22;3460;52.028;8.916;2022-10-16T13:31:15;19.30;99.90
6843;DHT22;3460;52.028;8.916;2022-10-16T13:33:46;19.20;99.90
6843;DHT22;3460;52.028;8.916;2022-10-16T13:36:22;19.20;99.90
6843;DHT22;3460;52.028;8.916;2022-10-16T13:39:00;19.30;99.90
6843;DHT22;3460;52.028;8.916;2022-10-16T13:41:31;19.30;99.90
6843;DHT22;3460;52.028;8.916;2022-10-16T13:43:58;19.20;99.90
6843;DHT22;3460;52.028;8.916;2022-10-16T13:46:25;19.10;99.90
6843;DHT22;3460;52.028;8.916;2022-10-16T13:48:59;19.10;99.90
6843;DHT22;3460;52.028;8.916;2022-10-16T13:51:27;19.00;99.90
6843;DHT22;3460;52.028;8.916;2022-10-16T13:53:55;18.90;99.90
6843;DHT22;3460;52.028;8.916;2022-10-16T13:56:25;18.80;99.90
6843;DHT22;3460;52.028;8.916;2022-10-16T13:59:00;18.70;99.90
6843;DHT22;3460;52.028;8.916;2022-10-16T14:01:28;18.70;99.90
6843;DHT22;3460;52.028;8.916;2022-10-16T14:04:01;18.60;99.90
6843;DHT22;3460;52.028;8.916;2022-10-16T14:06:29;18.60;99.90
6843;DHT22;3460;52.028;8.916;2022-10-16T14:09:00;18.70;99.90
6843;DHT22;3460;52.028;8.916;2022-10-16T14:11:28;18.80;99.90
6843;DHT22;3460;52.028;8.916;2022-10-16T14:13:55;18.80;99.90
6843;DHT22;3460;52.028;8.916;2022-10-16T14:16:26;18.90;99.90
6843;DHT22;3460;52.028;8.916;2022-10-16T14:18:57;19.00;99.90
6843;DHT22;3460;52.028;8.916;2022-10-16T14:21:24;18.90;99.90
6843;DHT22;3460;52.028;8.916;2022-10-16T14:23:52;18.80;99.90
6843;DHT22;3460;52.028;8.916;2022-10-16T14:26:21;18.60;99.90
6843;DHT22;3460;52.028;8.916;2022-10-16T14:28:49;18.40;99.90
6843;DHT22;3460;52.028;8.916;2022-10-16T14:31:30;18.40;99.90
6843;DHT22;3460;52.028;8.916;2022-10-16T14:33:57;18.40;99.90
6843;DHT22;3460;52.028;8.916;2022-10-16T14:36:25;18.40;99.90
6843;DHT22;3460;52.028;8.916;2022-10-16T14:39:01;18.40;99.90
6843;DHT22;3460;52.028;8.916;2022-10-16T14:41:29;18.50;99.90
6843;DHT22;3460;52.028;8.916;2022-10-16T14:44:01;18.70;99.90
6843;DHT22;3460;52.028;8.916;2022-10-16T14:46:33;18.70;99.90
6843;DHT22;3460;52.028;8.916;2022-10-16T14:49:03;18.80;99.90
6843;DHT22;3460;52.028;8.916;2022-10-16T14:51:31;18.80;99.90
6843;DHT22;3460;52.028;8.916;2022-10-16T14:53:57;18.70;99.90
6843;DHT22;3460;52.028;8.916;2022-10-16T14:56:27;18.70;99.90
6843;DHT22;3460;52.028;8.916;2022-10-16T14:58:55;18.60;99.90
6843;DHT22;3460;52.028;8.916;2022-10-16T15:01:22;18.60;99.90
6843;DHT22;3460;52.028;8.916;2022-10-16T15:03:50;18.60;99.90
6843;DHT22;3460;52.028;8.916;2022-10-16T15:06:20;18.60;99.90
6843;DHT22;3460;52.028;8.916;2022-10-16T15:08:47;18.60;99.90
6843;DHT22;3460;52.028;8.916;2022-10-16T15:11:15;18.50;99.90
6843;DHT22;3460;52.028;8.916;2022-10-16T15:13:43;18.40;99.90
6843;DHT22;3460;52.028;8.916;2022-10-16T15:16:11;18.40;99.90
6843;DHT22;3460;52.028;8.916;2022-10-16T15:18:38;18.30;99.90
6843;DHT22;3460;52.028;8.916;2022-10-16T15:21:06;18.20;99.90
6843;DHT22;3460;52.028;8.916;2022-10-16T15:23:33;18.20;99.90
6843;DHT22;3460;52.028;8.916;2022-10-16T15:26:00;18.10;99.90
6843;DHT22;3460;52.028;8.916;2022-10-16T15:28:26;18.10;99.90
6843;DHT22;3460;52.028;8.916;2022-10-16T15:30:55;18.00;99.90
6843;DHT22;3460;52.028;8.916;2022-10-16T15:33:24;18.00;99.90
6843;DHT22;3460;52.028;8.916;2022-10-16T15:35:53;18.00;99.90
6843;DHT22;3460;52.028;8.916;2022-10-16T15:38:22;18.00;99.90
6843;DHT22;3460;52.028;8.916;2022-10-16T15:40:49;18.00;99.90
6843;DHT22;3460;52.028;8.916;2022-10-16T15:43:17;18.00;99.90
6843;DHT22;3460;52.028;8.916;2022-10-16T15:45:44;17.90;99.90
6843;DHT22;3460;52.028;8.916;2022-10-16T15:48:12;17.80;99.90
6843;DHT22;3460;52.028;8.916;2022-10-16T15:50:39;17.70;99.90
6843;DHT22;3460;52.028;8.916;2022-10-16T15:53:07;17.60;99.90
6843;DHT22;3460;52.028;8.916;2022-10-16T15:55:35;17.50;99.90
6843;DHT22;3460;52.028;8.916;2022-10-16T15:58:03;17.40;99.90
6843;DHT22;3460;52.028;8.916;2022-10-16T16:00:30;17.30;99.90
6843;DHT22;3460;52.028;8.916;2022-10-16T16:02:57;17.30;99.90
6843;DHT22;3460;52.028;8.916;2022-10-16T16:05:24;17.10;99.90
6843;DHT22;3460;52.028;8.916;2022-10-16T16:07:51;17.00;99.90
6843;DHT22;3460;52.028;8.916;2022-10-16T16:10:18;16.90;99.90
6843;DHT22;3460;52.028;8.916;2022-10-16T16:12:47;16.70;99.90
6843;DHT22;3460;52.028;8.916;2022-10-16T16:15:18;16.70;99.90
6843;DHT22;3460;52.028;8.916;2022-10-16T16:17:44;16.60;99.90
6843;DHT22;3460;52.028;8.916;2022-10-16T16:20:11;16.70;99.90
6843;DHT22;3460;52.028;8.916;2022-10-16T16:22:38;16.60;99.90
6843;DHT22;3460;52.028;8.916;2022-10-16T16:25:05;16.50;99.90
6843;DHT22;3460;52.028;8.916;2022-10-16T16:27:32;16.40;99.90